createdAt,value
2018-09-26T00:00:26.949Z,91.50
2018-09-26T00:02:57.839Z,91.50
2018-09-26T00:05:26.049Z,91.30
2018-09-26T00:07:54.246Z,91.10
2018-09-26T00:10:22.459Z,91.10
2018-09-26T00:12:50.606Z,91.20
2018-09-26T00:15:18.850Z,91.10
2018-09-26T00:17:46.982Z,91.00
2018-09-26T00:20:15.143Z,91.00
2018-09-26T00:22:43.371Z,91.00
2018-09-26T00:25:11.570Z,91.00
2018-09-26T00:27:40.690Z,90.90
2018-09-26T00:30:08.834Z,91.10
2018-09-26T00:32:37.692Z,91.20
2018-09-26T00:35:06.429Z,91.20
2018-09-26T00:37:34.626Z,91.10
2018-09-26T00:40:02.761Z,91.10
2018-09-26T00:42:31.615Z,90.80
2018-09-26T00:44:59.739Z,90.50
2018-09-26T00:47:27.880Z,90.30
2018-09-26T00:49:56.018Z,90.20
2018-09-26T00:52:24.209Z,90.20
2018-09-26T00:54:52.389Z,90.30
2018-09-26T00:57:20.591Z,90.40
2018-09-26T00:59:48.705Z,90.50
2018-09-26T01:02:16.841Z,90.60
2018-09-26T01:04:45.903Z,90.60
2018-09-26T01:07:14.123Z,90.60
2018-09-26T01:09:42.283Z,90.60
2018-09-26T01:12:10.432Z,90.60
2018-09-26T01:14:38.661Z,90.60
2018-09-26T01:17:06.811Z,90.60
2018-09-26T01:19:36.073Z,90.50
2018-09-26T01:22:04.273Z,90.50
2018-09-26T01:24:32.407Z,90.50
2018-09-26T01:27:00.593Z,90.60
2018-09-26T01:29:28.729Z,90.70
2018-09-26T01:31:56.842Z,90.60
2018-09-26T01:34:24.980Z,90.60
2018-09-26T01:36:53.193Z,90.60
2018-09-26T01:39:21.348Z,90.60
2018-09-26T01:41:49.943Z,90.60
2018-09-26T01:44:18.669Z,90.70
2018-09-26T01:46:47.523Z,90.60
2018-09-26T01:49:15.772Z,90.60
2018-09-26T01:51:43.957Z,90.40
2018-09-26T01:54:12.353Z,90.30
2018-09-26T01:56:40.615Z,90.30
2018-09-26T01:59:08.906Z,90.30
2018-09-26T02:01:37.210Z,90.30
2018-09-26T02:04:06.160Z,90.40
2018-09-26T02:06:34.464Z,90.50
2018-09-26T02:09:03.155Z,90.40
2018-09-26T02:11:31.304Z,90.50
2018-09-26T02:13:59.665Z,90.40
2018-09-26T02:16:27.764Z,90.40
2018-09-26T02:18:56.029Z,90.40
2018-09-26T02:21:24.134Z,90.40
2018-09-26T02:23:52.439Z,90.40
2018-09-26T02:26:20.717Z,90.40
2018-09-26T02:28:48.836Z,90.40
2018-09-26T02:31:18.244Z,90.30
2018-09-26T02:33:46.441Z,90.30
2018-09-26T02:36:14.627Z,90.50
2018-09-26T02:38:42.979Z,90.60
2018-09-26T02:41:11.298Z,90.50
2018-09-26T02:43:40.805Z,90.60
2018-09-26T02:46:08.975Z,90.70
2018-09-26T02:48:42.678Z,91.10
2018-09-26T02:51:10.910Z,90.80
2018-09-26T02:53:39.193Z,91.20
2018-09-26T02:56:07.381Z,91.00
2018-09-26T02:58:36.751Z,91.10
2018-09-26T03:01:04.957Z,91.10
2018-09-26T03:03:33.142Z,91.10
2018-09-26T03:06:01.499Z,91.10
2018-09-26T03:08:30.080Z,91.40
2018-09-26T03:10:58.664Z,91.30
2018-09-26T03:13:28.414Z,91.20
2018-09-26T03:15:56.857Z,91.20
2018-09-26T03:18:24.997Z,91.20
2018-09-26T03:20:54.284Z,91.30
2018-09-26T03:23:23.095Z,91.20
2018-09-26T03:25:51.308Z,91.20
2018-09-26T03:28:20.247Z,91.10
2018-09-26T03:30:49.137Z,91.10
2018-09-26T03:33:17.679Z,91.10
2018-09-26T03:35:45.836Z,91.40
2018-09-26T03:38:14.030Z,91.10
2018-09-26T03:40:42.175Z,91.10
2018-09-26T03:43:10.336Z,91.20
2018-09-26T03:45:39.310Z,91.20
2018-09-26T03:48:07.522Z,91.10
2018-09-26T03:50:35.722Z,91.10
2018-09-26T03:53:04.164Z,91.10
2018-09-26T03:55:33.188Z,91.10
2018-09-26T03:58:01.922Z,91.10
2018-09-26T04:00:30.083Z,91.20
2018-09-26T04:02:58.394Z,91.20
2018-09-26T04:05:26.566Z,91.20
2018-09-26T04:07:54.748Z,91.10
2018-09-26T04:10:22.914Z,91.10
2018-09-26T04:12:51.159Z,91.20
2018-09-26T04:15:19.387Z,91.20
2018-09-26T04:17:47.508Z,91.30
2018-09-26T04:20:15.921Z,91.40
2018-09-26T04:22:44.076Z,91.40
2018-09-26T04:25:12.236Z,91.00
2018-09-26T04:27:40.586Z,91.10
2018-09-26T04:30:08.714Z,91.10
2018-09-26T04:32:37.137Z,90.90
2018-09-26T04:35:05.475Z,91.00
2018-09-26T04:37:33.633Z,90.90
2018-09-26T04:40:01.789Z,90.90
2018-09-26T04:42:30.010Z,90.90
2018-09-26T04:44:58.170Z,91.00
2018-09-26T04:47:26.364Z,91.00
2018-09-26T04:49:54.570Z,91.10
2018-09-26T04:52:22.733Z,91.20
2018-09-26T04:54:51.250Z,91.40
2018-09-26T04:57:19.422Z,91.50
2018-09-26T04:59:47.723Z,91.50
2018-09-26T05:02:15.877Z,91.40
2018-09-26T05:04:44.081Z,91.40
2018-09-26T05:07:12.362Z,91.20
2018-09-26T05:09:40.519Z,91.20
2018-09-26T05:12:08.759Z,91.40
2018-09-26T05:14:36.969Z,91.40
2018-09-26T05:17:05.095Z,91.40
2018-09-26T05:19:33.238Z,91.40
2018-09-26T05:22:01.423Z,91.30
2018-09-26T05:24:29.606Z,91.30
2018-09-26T05:26:57.985Z,91.20
2018-09-26T05:29:26.180Z,91.00
2018-09-26T05:31:54.352Z,91.10
2018-09-26T05:34:22.508Z,90.90
2018-09-26T05:36:50.642Z,90.80
2018-09-26T05:39:19.675Z,90.80
2018-09-26T05:41:47.844Z,90.40
2018-09-26T05:44:15.978Z,90.50
2018-09-26T05:46:44.222Z,90.40
2018-09-26T05:49:12.495Z,90.20
2018-09-26T05:51:40.659Z,90.10
2018-09-26T05:54:08.842Z,89.80
2018-09-26T05:56:37.066Z,89.60
2018-09-26T05:59:05.298Z,90.00
2018-09-26T06:01:33.498Z,89.60
2018-09-26T06:04:01.675Z,88.50
2018-09-26T06:06:29.878Z,88.60
2018-09-26T06:08:58.039Z,88.50
2018-09-26T06:11:26.205Z,87.80
2018-09-26T06:13:54.410Z,87.00
2018-09-26T06:16:22.551Z,86.80
2018-09-26T06:18:57.199Z,86.20
2018-09-26T06:21:25.388Z,86.50
2018-09-26T06:23:53.614Z,86.50
2018-09-26T06:26:22.945Z,86.20
2018-09-26T06:28:51.084Z,85.30
2018-09-26T06:31:19.242Z,84.90
2018-09-26T06:33:47.584Z,84.40
2018-09-26T06:36:15.751Z,84.00
2018-09-26T06:38:43.880Z,83.40
2018-09-26T06:41:13.844Z,83.40
2018-09-26T06:43:43.101Z,83.20
2018-09-26T06:46:11.198Z,83.00
2018-09-26T06:48:39.654Z,83.10
2018-09-26T06:51:07.777Z,82.60
2018-09-26T06:53:35.960Z,82.60
2018-09-26T06:56:04.198Z,82.40
2018-09-26T07:01:02.440Z,82.20
2018-09-26T07:03:31.628Z,82.70
2018-09-26T07:05:59.785Z,82.70
2018-09-26T07:08:27.915Z,82.80
2018-09-26T07:10:56.160Z,82.70
2018-09-26T07:13:24.517Z,82.50
2018-09-26T07:15:52.618Z,82.80
2018-09-26T07:18:21.129Z,83.00
2018-09-26T07:20:49.370Z,83.30
2018-09-26T07:23:17.582Z,83.50
2018-09-26T07:25:45.970Z,83.50
2018-09-26T07:28:14.177Z,81.80
2018-09-26T07:30:43.395Z,81.30
2018-09-26T07:33:11.653Z,80.70
2018-09-26T07:35:39.961Z,79.90
2018-09-26T07:38:08.097Z,78.50
2018-09-26T07:40:36.327Z,77.90
2018-09-26T07:43:04.654Z,77.10
2018-09-26T07:45:32.920Z,76.90
2018-09-26T07:48:01.051Z,76.50
2018-09-26T07:50:29.197Z,76.30
2018-09-26T07:52:57.408Z,76.00
2018-09-26T07:55:25.506Z,75.30
2018-09-26T07:57:53.679Z,75.00
2018-09-26T08:00:22.883Z,74.90
2018-09-26T08:02:51.132Z,73.80
2018-09-26T08:05:19.295Z,74.10
2018-09-26T08:07:47.649Z,73.60
2018-09-26T08:10:15.810Z,73.60
2018-09-26T08:12:43.993Z,73.30
2018-09-26T08:15:12.170Z,73.30
2018-09-26T08:17:40.310Z,73.80
2018-09-26T08:20:08.444Z,73.10
2018-09-26T08:22:36.603Z,72.50
2018-09-26T08:25:04.789Z,71.60
2018-09-26T08:27:32.926Z,71.20
2018-09-26T08:30:01.141Z,71.10
2018-09-26T08:32:29.206Z,70.40
2018-09-26T08:34:57.385Z,70.70
2018-09-26T08:37:25.507Z,69.90
2018-09-26T08:39:53.666Z,67.70
2018-09-26T08:42:23.879Z,67.00
2018-09-26T08:44:53.014Z,67.20
2018-09-26T08:47:21.198Z,64.80
2018-09-26T08:49:49.384Z,63.20
2018-09-26T08:52:17.712Z,61.50
2018-09-26T08:54:45.964Z,61.90
2018-09-26T08:57:14.232Z,61.80
2018-09-26T08:59:42.992Z,59.90
2018-09-26T09:02:11.170Z,59.90
2018-09-26T09:04:39.351Z,60.40
2018-09-26T09:07:07.500Z,59.40
2018-09-26T09:09:35.739Z,58.90
2018-09-26T09:12:03.883Z,58.90
2018-09-26T09:14:32.154Z,57.50
2018-09-26T09:17:00.246Z,57.70
2018-09-26T09:19:28.452Z,57.90
2018-09-26T09:21:56.577Z,57.50
2018-09-26T09:24:24.751Z,57.90
2018-09-26T09:26:52.927Z,57.80
2018-09-26T09:29:21.098Z,57.80
2018-09-26T09:31:49.264Z,57.50
2018-09-26T09:34:17.448Z,57.90
2018-09-26T09:36:45.589Z,57.90
2018-09-26T09:39:13.772Z,58.20
2018-09-26T09:41:41.981Z,58.00
2018-09-26T09:44:10.114Z,57.20
2018-09-26T09:46:38.278Z,56.60
2018-09-26T09:49:06.730Z,56.70
2018-09-26T09:51:34.874Z,56.40
2018-09-26T09:54:03.018Z,57.00
2018-09-26T09:56:31.328Z,55.90
2018-09-26T09:58:59.498Z,55.70
2018-09-26T10:01:29.052Z,55.60
2018-09-26T10:03:58.786Z,55.30
2018-09-26T10:06:27.328Z,55.10
2018-09-26T10:08:56.548Z,53.90
2018-09-26T10:11:24.684Z,52.80
2018-09-26T10:13:53.027Z,51.80
2018-09-26T10:16:21.208Z,51.20
2018-09-26T10:18:49.378Z,50.40
2018-09-26T10:21:17.556Z,50.80
2018-09-26T10:23:45.785Z,50.50
2018-09-26T10:26:14.014Z,50.60
2018-09-26T10:28:42.288Z,50.90
2018-09-26T10:31:10.495Z,50.40
2018-09-26T10:33:38.673Z,49.20
2018-09-26T10:36:06.896Z,49.30
2018-09-26T10:38:35.105Z,49.30
2018-09-26T10:41:03.238Z,48.60
2018-09-26T10:43:31.514Z,48.10
2018-09-26T10:45:59.680Z,48.00
2018-09-26T10:48:29.236Z,46.80
2018-09-26T10:50:57.496Z,46.00
2018-09-26T10:53:25.713Z,45.10
2018-09-26T10:55:53.890Z,45.30
2018-09-26T10:58:22.616Z,45.70
2018-09-26T11:00:50.782Z,45.60
2018-09-26T11:03:18.950Z,46.30
2018-09-26T11:05:47.122Z,46.60
2018-09-26T11:08:15.371Z,46.70
2018-09-26T11:10:43.543Z,46.70
2018-09-26T11:13:11.666Z,46.50
2018-09-26T11:15:39.887Z,46.30
2018-09-26T11:18:08.026Z,46.50
2018-09-26T11:20:36.150Z,46.00
2018-09-26T11:23:04.323Z,46.00
2018-09-26T11:25:32.474Z,46.40
2018-09-26T11:28:00.972Z,46.00
2018-09-26T11:30:29.176Z,45.60
2018-09-26T11:32:57.334Z,46.00
2018-09-26T11:35:25.528Z,46.70
2018-09-26T11:37:53.838Z,46.40
2018-09-26T11:40:22.144Z,47.00
2018-09-26T11:42:50.345Z,45.80
2018-09-26T11:45:18.469Z,45.50
2018-09-26T11:47:46.606Z,44.60
2018-09-26T11:50:14.842Z,44.40
2018-09-26T11:52:43.491Z,44.90
2018-09-26T11:55:11.838Z,44.90
2018-09-26T11:57:39.961Z,45.30
2018-09-26T12:00:08.142Z,44.20
2018-09-26T12:02:36.286Z,44.20
2018-09-26T12:05:04.530Z,44.10
2018-09-26T12:07:33.035Z,44.60
2018-09-26T12:10:01.210Z,44.00
2018-09-26T12:12:29.393Z,44.60
2018-09-26T12:14:57.589Z,44.70
2018-09-26T12:17:25.776Z,43.90
2018-09-26T12:19:54.546Z,43.70
2018-09-26T12:22:22.877Z,43.80
2018-09-26T12:24:51.034Z,43.40
2018-09-26T12:27:19.178Z,42.80
2018-09-26T12:29:47.552Z,42.90
2018-09-26T12:32:15.934Z,42.60
2018-09-26T12:34:44.103Z,42.80
2018-09-26T12:37:12.236Z,42.00
2018-09-26T12:39:40.986Z,41.70
2018-09-26T12:42:10.222Z,41.70
2018-09-26T12:44:38.372Z,41.40
2018-09-26T12:47:06.714Z,42.10
2018-09-26T12:49:34.889Z,42.10
2018-09-26T12:52:03.106Z,42.70
2018-09-26T12:54:31.337Z,41.50
2018-09-26T12:56:59.482Z,41.80
2018-09-26T12:59:28.134Z,42.30
2018-09-26T13:01:56.309Z,42.60
2018-09-26T13:04:24.536Z,42.60
2018-09-26T13:06:52.616Z,43.20
2018-09-26T13:09:20.796Z,43.40
2018-09-26T13:11:48.946Z,43.10
2018-09-26T13:14:17.135Z,43.20
2018-09-26T13:16:45.313Z,42.40
2018-09-26T13:19:13.444Z,42.90
2018-09-26T13:21:41.588Z,42.90
2018-09-26T13:24:10.279Z,42.40
2018-09-26T13:26:38.436Z,42.70
2018-09-26T13:29:06.580Z,42.90
2018-09-26T13:31:37.806Z,43.10
2018-09-26T13:34:07.029Z,42.40
2018-09-26T13:36:35.186Z,42.40
2018-09-26T13:39:03.385Z,42.80
2018-09-26T13:41:31.524Z,42.20
2018-09-26T13:43:59.732Z,42.50
2018-09-26T13:46:28.016Z,42.20
2018-09-26T13:48:56.112Z,42.60
2018-09-26T13:51:24.240Z,42.80
2018-09-26T13:53:52.607Z,42.70
2018-09-26T13:56:20.845Z,43.90
2018-09-26T13:58:49.228Z,43.50
2018-09-26T14:01:17.391Z,42.90
2018-09-26T14:03:45.513Z,43.20
2018-09-26T14:06:13.637Z,43.40
2018-09-26T14:08:41.806Z,43.70
2018-09-26T14:11:09.995Z,43.70
2018-09-26T14:13:38.195Z,44.20
2018-09-26T14:16:06.546Z,43.70
2018-09-26T14:18:34.741Z,43.50
2018-09-26T14:21:02.984Z,43.60
2018-09-26T14:23:31.183Z,43.90
2018-09-26T14:25:59.512Z,43.80
2018-09-26T14:28:27.684Z,43.90
2018-09-26T14:30:55.890Z,44.10
2018-09-26T14:33:24.090Z,44.00
2018-09-26T14:35:52.208Z,43.90
2018-09-26T14:38:20.382Z,44.00
2018-09-26T14:40:48.587Z,43.90
2018-09-26T14:43:16.803Z,44.20
2018-09-26T14:45:45.074Z,43.70
2018-09-26T14:48:13.201Z,44.00
2018-09-26T14:50:41.345Z,43.90
2018-09-26T14:53:09.531Z,44.00
2018-09-26T14:55:37.718Z,44.30
2018-09-26T14:58:07.084Z,44.10
2018-09-26T15:00:35.261Z,44.10
2018-09-26T15:03:03.649Z,43.90
2018-09-26T15:05:31.923Z,44.00
2018-09-26T15:08:00.385Z,43.90
2018-09-26T15:10:28.553Z,44.20
2018-09-26T15:12:56.963Z,44.20
2018-09-26T15:15:25.334Z,43.40
2018-09-26T15:17:53.551Z,43.00
2018-09-26T15:20:21.920Z,42.90
2018-09-26T15:22:50.032Z,42.50
2018-09-26T15:25:18.194Z,42.20
2018-09-26T15:27:46.395Z,41.50
2018-09-26T15:30:14.772Z,41.20
2018-09-26T15:32:42.899Z,41.20
2018-09-26T15:35:11.179Z,41.20
2018-09-26T15:37:43.250Z,40.90
2018-09-26T15:40:11.617Z,40.70
2018-09-26T15:42:39.979Z,41.00
2018-09-26T15:45:08.183Z,40.30
2018-09-26T15:47:36.395Z,40.80
2018-09-26T15:50:04.640Z,41.20
2018-09-26T15:52:32.779Z,41.70
2018-09-26T15:55:01.003Z,42.10
2018-09-26T15:57:29.249Z,42.50
2018-09-26T15:59:57.448Z,42.80
2018-09-26T16:02:25.717Z,43.10
2018-09-26T16:04:53.935Z,43.40
2018-09-26T16:07:22.995Z,43.50
2018-09-26T16:09:51.186Z,43.70
2018-09-26T16:12:19.375Z,43.70
2018-09-26T16:14:47.546Z,43.90
2018-09-26T16:17:15.733Z,44.10
2018-09-26T16:19:43.903Z,44.30
2018-09-26T16:22:12.301Z,44.40
2018-09-26T16:24:40.435Z,44.40
2018-09-26T16:27:08.855Z,44.40
2018-09-26T16:29:37.127Z,44.60
2018-09-26T16:32:05.522Z,44.60
2018-09-26T16:34:33.649Z,44.80
2018-09-26T16:37:03.807Z,44.80
2018-09-26T16:39:32.031Z,44.40
2018-09-26T16:42:00.130Z,44.40
2018-09-26T16:44:29.167Z,44.50
2018-09-26T16:46:57.352Z,44.50
2018-09-26T16:49:25.677Z,44.50
2018-09-26T16:51:53.909Z,45.00
2018-09-26T16:54:22.151Z,45.10
2018-09-26T16:56:50.369Z,45.10
2018-09-26T16:59:18.558Z,44.40
2018-09-26T17:01:46.728Z,44.10
2018-09-26T17:04:15.084Z,44.20
2018-09-26T17:06:43.392Z,44.00
2018-09-26T17:09:11.535Z,43.90
2018-09-26T17:11:39.966Z,44.10
2018-09-26T17:14:08.166Z,44.20
2018-09-26T17:16:36.371Z,44.20
2018-09-26T17:19:04.617Z,44.20
2018-09-26T17:21:32.839Z,44.30
2018-09-26T17:24:01.005Z,44.00
2018-09-26T17:26:29.219Z,44.00
2018-09-26T17:28:57.431Z,44.30
2018-09-26T17:31:25.595Z,44.00
2018-09-26T17:33:53.807Z,44.00
2018-09-26T17:36:22.185Z,44.00
2018-09-26T17:38:50.342Z,44.10
2018-09-26T17:41:18.536Z,44.20
2018-09-26T17:43:46.662Z,44.20
2018-09-26T17:46:14.898Z,44.30
2018-09-26T17:48:43.091Z,44.60
2018-09-26T17:53:45.987Z,44.70
2018-09-26T17:56:14.278Z,44.90
2018-09-26T17:58:43.271Z,44.80
2018-09-26T18:01:11.448Z,44.70
2018-09-26T18:03:39.711Z,44.80
2018-09-26T18:06:07.979Z,44.80
2018-09-26T18:08:36.384Z,44.70
2018-09-26T18:11:05.473Z,44.90
2018-09-26T18:13:33.844Z,44.90
2018-09-26T18:16:02.149Z,45.10
2018-09-26T18:18:30.592Z,45.00
2018-09-26T18:20:58.831Z,44.90
2018-09-26T18:23:28.427Z,45.00
2018-09-26T18:25:56.549Z,45.00
2018-09-26T18:28:24.779Z,45.20
2018-09-26T18:30:53.058Z,45.10
2018-09-26T18:33:22.153Z,44.90
2018-09-26T18:35:50.811Z,45.00
2018-09-26T18:38:19.069Z,45.00
2018-09-26T18:40:47.184Z,44.80
2018-09-26T18:43:15.363Z,45.00
2018-09-26T18:45:43.573Z,45.00
2018-09-26T18:48:11.813Z,45.00
2018-09-26T18:50:40.103Z,45.00
2018-09-26T18:53:08.569Z,45.00
2018-09-26T18:55:36.751Z,45.00
2018-09-26T18:58:04.963Z,45.00
2018-09-26T19:00:33.144Z,45.10
2018-09-26T19:03:01.460Z,45.30
2018-09-26T19:05:29.680Z,45.20
2018-09-26T19:07:58.000Z,45.40
2018-09-26T19:10:26.213Z,45.40
2018-09-26T19:12:54.481Z,45.30
2018-09-26T19:15:22.732Z,45.30
2018-09-26T19:17:52.551Z,45.30
2018-09-26T19:20:20.871Z,45.10
2018-09-26T19:22:49.102Z,45.30
2018-09-26T19:25:17.472Z,45.60
2018-09-26T19:27:45.701Z,45.70
2018-09-26T19:30:15.234Z,45.70
2018-09-26T19:32:44.443Z,46.10
2018-09-26T19:35:13.526Z,45.70
2018-09-26T19:37:41.740Z,45.80
2018-09-26T19:40:10.074Z,45.80
2018-09-26T19:42:38.336Z,45.90
2018-09-26T19:45:06.582Z,46.00
2018-09-26T19:47:34.817Z,46.10
2018-09-26T19:50:03.110Z,46.30
2018-09-26T19:52:31.537Z,46.50
2018-09-26T19:55:00.184Z,46.70
2018-09-26T19:57:28.441Z,46.60
2018-09-26T19:59:56.642Z,46.80
2018-09-26T20:02:24.970Z,47.00
2018-09-26T20:04:53.162Z,47.20
2018-09-26T20:07:21.403Z,47.40
2018-09-26T20:09:49.625Z,47.60
2018-09-26T20:12:17.831Z,47.60
2018-09-26T20:14:46.130Z,48.10
2018-09-26T20:17:14.323Z,47.60
2018-09-26T20:19:42.740Z,47.60
2018-09-26T20:22:11.015Z,47.70
2018-09-26T20:24:39.229Z,47.70
2018-09-26T20:27:07.708Z,47.90
2018-09-26T20:29:36.130Z,48.40
2018-09-26T20:32:04.143Z,48.10
2018-09-26T20:34:33.527Z,48.00
2018-09-26T20:37:01.812Z,48.10
2018-09-26T20:39:30.047Z,48.10
2018-09-26T20:41:58.265Z,48.10
2018-09-26T20:44:26.583Z,48.30
2018-09-26T20:46:54.911Z,48.40
2018-09-26T20:49:23.084Z,48.50
2018-09-26T20:51:51.333Z,48.70
2018-09-26T20:54:33.759Z,48.80
2018-09-26T20:57:02.093Z,48.90
2018-09-26T20:59:30.253Z,49.20
2018-09-26T21:01:58.430Z,49.20
2018-09-26T21:04:26.614Z,49.30
2018-09-26T21:06:55.262Z,49.50
2018-09-26T21:09:23.461Z,49.70
2018-09-26T21:11:52.375Z,49.60
2018-09-26T21:14:20.553Z,49.70
2018-09-26T21:16:48.696Z,49.80
2018-09-26T21:19:16.882Z,49.80
2018-09-26T21:21:45.032Z,49.90
2018-09-26T21:24:13.423Z,49.90
2018-09-26T21:26:41.599Z,50.30
2018-09-26T21:29:10.472Z,50.00
2018-09-26T21:31:39.950Z,50.00
2018-09-26T21:34:09.116Z,50.10
2018-09-26T21:36:37.279Z,50.10
2018-09-26T21:39:07.241Z,50.30
2018-09-26T21:41:35.309Z,50.30
2018-09-26T21:44:04.099Z,50.50
2018-09-26T21:46:32.264Z,50.30
2018-09-26T21:49:00.614Z,50.40
2018-09-26T21:51:28.820Z,50.40
2018-09-26T21:53:56.989Z,50.50
2018-09-26T21:56:25.400Z,50.60
2018-09-26T21:58:53.588Z,51.00
2018-09-26T22:01:21.766Z,50.50
2018-09-26T22:03:49.935Z,50.40
2018-09-26T22:06:18.112Z,50.60
2018-09-26T22:08:46.321Z,50.50
2018-09-26T22:11:14.496Z,50.60
2018-09-26T22:13:42.710Z,50.50
2018-09-26T22:16:10.928Z,50.60
2018-09-26T22:18:39.107Z,50.50
2018-09-26T22:21:07.345Z,50.50
2018-09-26T22:23:35.609Z,50.70
2018-09-26T22:26:03.780Z,50.40
2018-09-26T22:28:31.987Z,50.40
2018-09-26T22:31:00.200Z,50.50
2018-09-26T22:33:28.849Z,50.40
2018-09-26T22:35:57.104Z,50.50
2018-09-26T22:38:25.353Z,50.50
2018-09-26T22:40:53.599Z,50.60
2018-09-26T22:43:21.824Z,50.70
2018-09-26T22:45:50.096Z,51.10
2018-09-26T22:48:18.277Z,50.90
2018-09-26T22:50:46.538Z,50.90
2018-09-26T22:53:14.719Z,51.00
2018-09-26T22:55:42.990Z,51.00
2018-09-26T22:58:11.256Z,51.20
2018-09-26T23:00:39.392Z,51.10
2018-09-26T23:03:07.659Z,51.00
2018-09-26T23:05:35.821Z,51.20
2018-09-26T23:08:04.101Z,51.20
2018-09-26T23:10:32.405Z,51.40
2018-09-26T23:13:00.615Z,51.60
2018-09-26T23:15:28.820Z,51.80
2018-09-26T23:17:57.027Z,52.00
2018-09-26T23:20:25.913Z,52.60
2018-09-26T23:22:54.085Z,52.30
2018-09-26T23:25:22.242Z,52.50
2018-09-26T23:27:50.418Z,52.70
2018-09-26T23:30:18.559Z,52.70
2018-09-26T23:32:46.756Z,52.80
2018-09-26T23:35:14.978Z,53.20
2018-09-26T23:37:43.308Z,53.30
2018-09-26T23:40:11.454Z,53.40
2018-09-26T23:42:39.634Z,53.40
2018-09-26T23:45:07.556Z,53.60
2018-09-26T23:47:35.766Z,53.80
2018-09-26T23:50:04.302Z,53.90
2018-09-26T23:52:32.478Z,53.90
2018-09-26T23:55:00.674Z,54.20
2018-09-26T23:57:28.862Z,54.20
2018-09-26T23:59:57.051Z,54.40
